Time;durP1;ratioP1;P1;durP2;ratioP2;P2;SDS_P1;SDS_P2;PMS_P1;PMS_P2;Temp;Humidity;BMP_temperature;BMP_pressure;BME280_temperature;BME280_humidity;BME280_pressure;Samples;Min_cycle;Max_cycle;Signal;HPM_P1;HPM_P2
2024/01/07 00:01:00;;;;;;;9.20;7.20;;;5.60;90.40;;;;;;5022611;28;20056;-60
2024/01/07 00:03:26;;;;;;;8.05;6.80;;;5.60;90.40;;;;;;5026359;28;20493;-63
2024/01/07 00:05:51;;;;;;;9.25;7.05;;;5.60;90.40;;;;;;5023529;28;20033;-61
2024/01/07 00:08:17;;;;;;;10.43;7.60;;;5.60;90.40;;;;;;5023366;28;20048;-62
2024/01/07 00:10:42;;;;;;;7.78;6.10;;;5.60;90.40;;;;;;5030086;28;20113;-63
2024/01/07 00:13:08;;;;;;;8.60;6.63;;;5.60;90.30;;;;;;5027141;28;20035;-60
2024/01/07 00:15:33;;;;;;;10.07;6.72;;;5.60;90.40;;;;;;5024583;28;20036;-62
2024/01/07 00:17:59;;;;;;;10.00;7.00;;;5.70;90.30;;;;;;5023586;28;20044;-61
2024/01/07 00:20:25;;;;;;;9.45;6.72;;;5.70;90.30;;;;;;5022675;28;20071;-61
2024/01/07 00:22:50;;;;;;;8.60;6.78;;;5.70;90.30;;;;;;5023299;28;20433;-62
2024/01/07 00:25:18;;;;;;;10.57;6.85;;;5.70;90.30;;;;;;5025972;28;20037;-63
2024/01/07 00:27:43;;;;;;;9.00;6.93;;;5.70;90.30;;;;;;5022875;28;20041;-62
2024/01/07 00:30:09;;;;;;;9.20;6.95;;;5.70;90.20;;;;;;5029754;28;20442;-62
2024/01/07 00:32:35;;;;;;;9.40;6.72;;;5.70;90.20;;;;;;5024564;28;20038;-63
2024/01/07 00:35:01;;;;;;;9.80;7.03;;;5.70;90.20;;;;;;5024777;28;20060;-62
2024/01/07 00:37:26;;;;;;;9.20;6.88;;;5.70;90.20;;;;;;5022629;28;20048;-62
2024/01/07 00:39:52;;;;;;;8.00;6.47;;;5.70;90.10;;;;;;5024394;28;20026;-62
2024/01/07 00:42:17;;;;;;;9.68;6.82;;;5.70;90.20;;;;;;5027612;28;20037;-62
2024/01/07 00:44:43;;;;;;;7.65;6.10;;;5.70;90.30;;;;;;5025986;28;20026;-62
2024/01/07 00:47:08;;;;;;;8.30;6.35;;;5.60;90.20;;;;;;5029808;28;20108;-62
2024/01/07 00:49:34;;;;;;;8.10;6.30;;;5.70;90.30;;;;;;5022508;28;20452;-62
2024/01/07 00:51:59;;;;;;;8.95;6.60;;;5.70;90.30;;;;;;5020840;28;20529;-62
2024/01/07 00:54:25;;;;;;;8.10;6.25;;;5.70;90.30;;;;;;5033613;28;20029;-62
2024/01/07 00:56:51;;;;;;;8.75;6.18;;;5.70;90.30;;;;;;5020823;28;20496;-62
2024/01/07 00:59:16;;;;;;;8.20;5.93;;;5.70;90.30;;;;;;5020508;28;20102;-63
2024/01/07 01:01:42;;;;;;;8.52;5.88;;;5.70;90.10;;;;;;5019583;28;20979;-62
2024/01/07 01:04:07;;;;;;;7.53;5.80;;;5.70;90.10;;;;;;5023231;28;20310;-62
2024/01/07 01:06:33;;;;;;;8.00;6.00;;;5.70;90.10;;;;;;5023456;28;20041;-63
2024/01/07 01:08:58;;;;;;;6.95;5.47;;;5.80;90.20;;;;;;5021436;28;20371;-63
2024/01/07 01:11:24;;;;;;;7.93;5.75;;;5.80;90.10;;;;;;5024944;28;20034;-63
2024/01/07 01:13:49;;;;;;;6.25;5.47;;;5.80;90.10;;;;;;5020973;28;20026;-62
2024/01/07 01:16:15;;;;;;;6.63;5.35;;;5.80;90.10;;;;;;5024687;28;20033;-62
2024/01/07 01:18:40;;;;;;;6.32;5.53;;;5.80;90.10;;;;;;5021568;28;20068;-61
2024/01/07 01:21:07;;;;;;;6.43;5.35;;;5.80;90.00;;;;;;5025153;28;20037;-62
2024/01/07 01:23:33;;;;;;;7.82;6.13;;;5.80;90.00;;;;;;5026389;28;20033;-62
2024/01/07 01:25:58;;;;;;;7.45;6.07;;;5.80;90.00;;;;;;5030477;28;20033;-63
2024/01/07 01:28:24;;;;;;;9.55;7.25;;;5.90;90.00;;;;;;5026589;28;20401;-63
2024/01/07 01:30:49;;;;;;;8.60;6.80;;;5.90;90.00;;;;;;5024378;28;20036;-62
2024/01/07 01:33:15;;;;;;;8.85;6.72;;;5.90;90.00;;;;;;5023954;28;20045;-63
2024/01/07 01:35:40;;;;;;;8.68;6.85;;;5.90;90.00;;;;;;5017639;28;20115;-63
2024/01/07 01:38:06;;;;;;;7.82;6.55;;;5.90;89.90;;;;;;5025223;28;20037;-63
2024/01/07 01:40:31;;;;;;;8.50;6.57;;;5.90;89.80;;;;;;5020097;28;20063;-63
2024/01/07 01:42:57;;;;;;;9.32;7.25;;;5.90;89.90;;;;;;5028543;28;20037;-63
2024/01/07 01:45:22;;;;;;;8.02;6.57;;;5.90;89.80;;;;;;5024812;28;20621;-63
2024/01/07 01:47:48;;;;;;;9.25;7.32;;;5.90;89.80;;;;;;5027401;28;20577;-63
2024/01/07 01:50:14;;;;;;;9.30;7.20;;;5.90;89.80;;;;;;5021794;28;20045;-61
2024/01/07 01:52:41;;;;;;;11.88;8.48;;;5.90;89.60;;;;;;5021855;28;20030;-63
2024/01/07 01:55:07;;;;;;;9.73;7.57;;;5.80;89.50;;;;;;5028048;28;20040;-64
2024/01/07 01:57:36;;;;;;;8.50;7.40;;;5.90;89.40;;;;;;5027300;28;20038;-62
2024/01/07 02:00:04;;;;;;;9.70;7.43;;;5.90;89.40;;;;;;5022628;28;20041;-63
2024/01/07 02:02:33;;;;;;;9.90;7.75;;;5.80;89.30;;;;;;5024016;28;20113;-63
2024/01/07 02:05:00;;;;;;;10.48;7.55;;;5.80;89.40;;;;;;5018041;28;20087;-63
2024/01/07 02:07:27;;;;;;;9.77;7.40;;;5.80;89.70;;;;;;5020770;28;20109;-63
2024/01/07 02:09:53;;;;;;;9.70;7.20;;;5.80;89.80;;;;;;5022212;28;20044;-63
2024/01/07 02:12:19;;;;;;;10.52;7.47;;;5.80;89.80;;;;;;5023122;28;20037;-63
2024/01/07 02:14:44;;;;;;;9.20;7.45;;;5.80;89.70;;;;;;5018121;28;20038;-63
2024/01/07 02:17:10;;;;;;;10.80;8.18;;;5.80;89.80;;;;;;5026416;28;20041;-63
2024/01/07 02:19:35;;;;;;;10.93;8.18;;;5.80;89.80;;;;;;5023924;28;20459;-63
2024/01/07 02:22:01;;;;;;;9.15;7.32;;;5.80;89.50;;;;;;5026928;28;20342;-63
2024/01/07 02:24:27;;;;;;;9.80;7.70;;;5.80;90.10;;;;;;5026839;28;20053;-62
2024/01/07 02:26:52;;;;;;;9.80;7.65;;;5.80;89.70;;;;;;5025124;28;20037;-63
2024/01/07 02:29:18;;;;;;;9.25;7.40;;;5.80;89.60;;;;;;5025500;28;20168;-61
2024/01/07 02:31:43;;;;;;;9.88;7.80;;;5.80;89.60;;;;;;5025002;28;20517;-62
2024/01/07 02:34:10;;;;;;;10.95;8.05;;;5.80;90.10;;;;;;5026012;28;20127;-63
2024/01/07 02:36:36;;;;;;;10.05;7.70;;;5.80;89.70;;;;;;5020037;28;20033;-63
2024/01/07 02:39:01;;;;;;;9.68;7.70;;;5.70;89.70;;;;;;5021628;28;20040;-63
2024/01/07 02:41:27;;;;;;;10.18;7.95;;;5.70;89.60;;;;;;5023264;28;20033;-62
2024/01/07 02:43:52;;;;;;;12.02;7.88;;;5.80;89.70;;;;;;5019702;28;20029;-62
2024/01/07 02:46:20;;;;;;;10.43;8.00;;;5.70;89.60;;;;;;5024368;28;20118;-63
2024/01/07 02:48:45;;;;;;;10.75;8.15;;;5.80;89.60;;;;;;5019589;28;20038;-63
2024/01/07 02:51:11;;;;;;;11.95;8.27;;;5.80;89.70;;;;;;5025663;28;20037;-61
2024/01/07 02:53:36;;;;;;;10.70;8.20;;;5.80;90.10;;;;;;5024114;28;20037;-63
2024/01/07 02:56:02;;;;;;;10.40;7.63;;;5.70;89.40;;;;;;5025198;28;20029;-63
2024/01/07 02:58:28;;;;;;;10.77;7.53;;;5.70;89.40;;;;;;5022940;28;20038;-61
2024/01/07 03:00:53;;;;;;;10.82;7.63;;;5.70;89.40;;;;;;5019494;28;20034;-62
2024/01/07 03:03:19;;;;;;;9.63;7.57;;;5.70;89.40;;;;;;5019945;28;20025;-63
2024/01/07 03:05:44;;;;;;;10.35;7.75;;;5.70;89.60;;;;;;5020248;28;20065;-61
2024/01/07 03:08:10;;;;;;;9.68;7.30;;;5.70;89.70;;;;;;5024809;28;20386;-62
2024/01/07 03:10:35;;;;;;;8.27;6.68;;;5.60;89.60;;;;;;5026569;28;20069;-60
2024/01/07 03:13:02;;;;;;;10.70;7.32;;;5.60;89.60;;;;;;5025313;28;20022;-60
2024/01/07 03:15:28;;;;;;;8.02;6.32;;;5.60;89.70;;;;;;5020921;28;20464;-62
2024/01/07 03:17:54;;;;;;;9.15;6.70;;;5.50;89.80;;;;;;5022724;28;20038;-63
2024/01/07 03:20:19;;;;;;;7.95;6.40;;;5.50;90.00;;;;;;5034411;28;20029;-61
2024/01/07 03:22:45;;;;;;;8.20;6.50;;;5.50;90.00;;;;;;5025666;28;20037;-61
2024/01/07 03:25:10;;;;;;;8.63;6.38;;;5.50;90.00;;;;;;5028522;28;20034;-62
2024/01/07 03:27:36;;;;;;;8.25;6.60;;;5.50;90.10;;;;;;5028849;28;20048;-61
2024/01/07 03:30:02;;;;;;;8.90;6.63;;;5.50;90.10;;;;;;5028085;28;20120;-61
2024/01/07 03:32:28;;;;;;;9.32;6.65;;;5.50;90.10;;;;;;5019211;28;20033;-59
2024/01/07 03:34:53;;;;;;;8.85;6.80;;;5.50;90.10;;;;;;5021410;28;20358;-62
2024/01/07 03:37:19;;;;;;;9.15;6.65;;;5.50;90.10;;;;;;5026186;28;20128;-62
2024/01/07 03:39:47;;;;;;;8.43;6.23;;;5.50;90.10;;;;;;5025960;28;20045;-62
2024/01/07 03:42:13;;;;;;;8.52;6.43;;;5.50;90.10;;;;;;5028887;28;20045;-63
2024/01/07 03:44:39;;;;;;;8.05;6.32;;;5.40;90.10;;;;;;5022156;28;20486;-62
2024/01/07 03:47:05;;;;;;;8.70;6.82;;;5.50;90.10;;;;;;5020296;28;20460;-60
2024/01/07 03:49:31;;;;;;;9.63;6.75;;;5.40;90.10;;;;;;5019414;28;20167;-63
2024/01/07 03:51:56;;;;;;;9.18;6.63;;;5.40;90.10;;;;;;5028484;28;20116;-62
2024/01/07 03:54:22;;;;;;;8.63;6.75;;;5.40;90.10;;;;;;5029313;28;20065;-61
2024/01/07 03:56:47;;;;;;;8.90;6.65;;;5.40;90.20;;;;;;5021903;28;20480;-62
2024/01/07 03:59:13;;;;;;;8.95;6.53;;;5.30;90.20;;;;;;5034844;28;21088;-62
2024/01/07 04:01:39;;;;;;;9.10;6.60;;;5.30;90.20;;;;;;5024206;28;20048;-62
2024/01/07 04:04:04;;;;;;;10.65;7.47;;;5.30;90.30;;;;;;5035456;28;20482;-62
2024/01/07 04:06:30;;;;;;;11.20;6.78;;;5.30;90.40;;;;;;5029437;28;20041;-62
2024/01/07 04:08:55;;;;;;;9.27;6.90;;;5.30;90.30;;;;;;5033781;28;20029;-63
2024/01/07 04:11:21;;;;;;;10.88;7.28;;;5.30;90.30;;;;;;5028364;28;20041;-62
2024/01/07 04:13:47;;;;;;;10.55;7.13;;;5.30;90.30;;;;;;5025459;28;20396;-63
2024/01/07 04:16:17;;;;;;;11.95;7.53;;;5.30;90.40;;;;;;5025683;28;20166;-63
2024/01/07 04:18:42;;;;;;;10.32;7.82;;;5.30;90.40;;;;;;5026956;28;20037;-63
2024/01/07 04:21:11;;;;;;;10.13;7.05;;;5.30;90.30;;;;;;5033440;28;20044;-63
2024/01/07 04:23:39;;;;;;;10.95;7.68;;;5.30;90.30;;;;;;5035681;28;20097;-63
2024/01/07 04:26:05;;;;;;;10.52;7.78;;;5.30;90.30;;;;;;5030373;28;20033;-63
2024/01/07 04:28:30;;;;;;;11.63;7.15;;;5.30;90.20;;;;;;5027684;28;20396;-61
2024/01/07 04:30:56;;;;;;;9.32;7.55;;;5.30;90.20;;;;;;5032606;28;20048;-61
2024/01/07 04:33:22;;;;;;;9.95;7.72;;;5.30;90.20;;;;;;5026082;28;20556;-63
2024/01/07 04:35:47;;;;;;;11.57;7.75;;;5.20;90.20;;;;;;5033146;28;20497;-63
2024/01/07 04:38:14;;;;;;;11.45;7.47;;;5.30;90.30;;;;;;5023993;28;20117;-62
2024/01/07 04:40:40;;;;;;;10.73;7.30;;;5.30;90.20;;;;;;5023506;28;20034;-61
2024/01/07 04:43:05;;;;;;;9.77;7.30;;;5.30;90.30;;;;;;5024804;28;20030;-63
2024/01/07 04:45:31;;;;;;;11.55;8.15;;;5.30;90.30;;;;;;5020482;28;20033;-62
2024/01/07 04:47:56;;;;;;;9.70;7.00;;;5.30;90.30;;;;;;5025491;28;20030;-62
2024/01/07 04:50:22;;;;;;;9.98;7.50;;;5.30;90.30;;;;;;5027192;28;20037;-63
2024/01/07 04:52:48;;;;;;;11.18;7.15;;;5.30;90.30;;;;;;5023407;28;20480;-63
2024/01/07 04:55:14;;;;;;;10.50;7.80;;;5.30;90.20;;;;;;5025151;28;20038;-61
2024/01/07 04:57:39;;;;;;;10.27;7.45;;;5.30;90.20;;;;;;5022991;28;20026;-62
2024/01/07 05:00:06;;;;;;;9.95;7.50;;;5.30;90.10;;;;;;5027419;28;20144;-62
2024/01/07 05:02:31;;;;;;;9.60;7.13;;;5.30;90.10;;;;;;5031408;28;20464;-62
2024/01/07 05:04:57;;;;;;;12.23;8.07;;;5.30;90.10;;;;;;5023678;28;20045;-61
2024/01/07 05:07:22;;;;;;;9.80;7.50;;;5.20;90.40;;;;;;5026487;28;20241;-61
2024/01/07 05:09:48;;;;;;;9.25;7.40;;;5.30;90.10;;;;;;5022343;28;20456;-62
2024/01/07 05:12:14;;;;;;;11.88;7.95;;;5.20;90.10;;;;;;5023181;28;20040;-62
2024/01/07 05:14:42;;;;;;;10.98;7.63;;;5.20;90.10;;;;;;5022443;28;20191;-60
2024/01/07 05:17:08;;;;;;;10.93;7.72;;;5.20;90.10;;;;;;5023697;28;20025;-62
2024/01/07 05:19:34;;;;;;;10.45;7.55;;;5.20;90.10;;;;;;5020060;28;20044;-62
2024/01/07 05:21:59;;;;;;;9.68;7.30;;;5.30;90.10;;;;;;5024190;28;20044;-62
2024/01/07 05:24:25;;;;;;;11.48;7.55;;;5.20;90.10;;;;;;5024519;28;20060;-60
2024/01/07 05:26:51;;;;;;;12.60;7.70;;;5.30;90.10;;;;;;5024141;28;20076;-62
2024/01/07 05:29:17;;;;;;;11.13;8.50;;;5.30;90.20;;;;;;5020970;28;20040;-63
2024/01/07 05:31:42;;;;;;;12.20;7.63;;;5.20;90.10;;;;;;5022640;28;20030;-63
2024/01/07 05:34:08;;;;;;;10.65;7.80;;;5.20;90.10;;;;;;5024456;28;20060;-59
2024/01/07 05:36:34;;;;;;;13.18;8.00;;;5.20;90.10;;;;;;5022889;28;20644;-61
2024/01/07 05:38:59;;;;;;;11.50;8.35;;;5.20;90.10;;;;;;5025204;28;20512;-63
2024/01/07 05:41:25;;;;;;;10.57;7.68;;;5.20;90.10;;;;;;5020962;28;20522;-61
2024/01/07 05:43:51;;;;;;;9.40;7.43;;;5.20;90.10;;;;;;5020849;28;20690;-63
2024/01/07 05:46:17;;;;;;;11.60;8.40;;;5.20;90.10;;;;;;5023576;28;20523;-62
2024/01/07 05:48:47;;;;;;;12.07;8.02;;;5.20;90.10;;;;;;5021427;28;20041;-62
2024/01/07 05:51:14;;;;;;;11.05;8.25;;;5.20;90.10;;;;;;5027892;28;20061;-61
2024/01/07 05:53:40;;;;;;;11.40;8.07;;;5.20;90.10;;;;;;5021899;28;20057;-63
2024/01/07 05:56:06;;;;;;;12.30;8.23;;;5.20;90.10;;;;;;5020805;28;20065;-62
2024/01/07 05:58:32;;;;;;;10.73;7.93;;;5.10;90.10;;;;;;5023516;28;20038;-63
2024/01/07 06:00:58;;;;;;;11.85;8.60;;;5.20;90.10;;;;;;5019087;28;20886;-63
2024/01/07 06:03:23;;;;;;;14.32;8.93;;;5.10;90.20;;;;;;5021350;28;20156;-63
2024/01/07 06:05:49;;;;;;;12.27;8.65;;;5.20;90.20;;;;;;5023624;28;20029;-62
2024/01/07 06:08:15;;;;;;;11.75;8.82;;;5.10;90.10;;;;;;5024791;28;20087;-63
2024/01/07 06:10:40;;;;;;;13.48;9.05;;;5.10;90.10;;;;;;5023610;28;21105;-62
2024/01/07 06:13:06;;;;;;;12.82;9.32;;;5.10;90.20;;;;;;5020535;28;20042;-61
2024/01/07 06:15:32;;;;;;;12.55;8.90;;;5.10;90.20;;;;;;5022109;28;20042;-62
2024/01/07 06:17:58;;;;;;;13.25;9.23;;;5.10;90.20;;;;;;5020336;28;20454;-62
2024/01/07 06:20:24;;;;;;;12.57;8.73;;;5.10;90.60;;;;;;5020675;28;20041;-63
2024/01/07 06:22:50;;;;;;;13.10;9.02;;;5.20;90.20;;;;;;5022396;28;20026;-63
2024/01/07 06:25:16;;;;;;;10.50;8.55;;;5.20;90.20;;;;;;5019598;28;20052;-62
2024/01/07 06:27:41;;;;;;;14.05;9.38;;;5.20;90.20;;;;;;5019567;28;20034;-63
2024/01/07 06:30:08;;;;;;;13.05;9.80;;;5.20;90.20;;;;;;5022381;28;20551;-63
2024/01/07 06:32:33;;;;;;;12.13;9.00;;;5.20;90.30;;;;;;5020341;28;20033;-62
2024/01/07 06:34:59;;;;;;;12.13;9.07;;;5.20;90.60;;;;;;5021535;28;20033;-61
2024/01/07 06:37:25;;;;;;;12.45;8.93;;;5.20;90.20;;;;;;5018563;28;20478;-62
2024/01/07 06:39:51;;;;;;;13.10;9.30;;;5.20;90.30;;;;;;5019998;28;20040;-61
2024/01/07 06:42:17;;;;;;;10.82;8.70;;;5.20;90.30;;;;;;5022943;28;20032;-63
2024/01/07 06:44:42;;;;;;;13.60;9.18;;;5.20;90.20;;;;;;5025437;28;20034;-63
2024/01/07 06:47:08;;;;;;;13.88;9.48;;;5.20;90.50;;;;;;5024382;28;20026;-60
2024/01/07 06:49:33;;;;;;;11.88;9.35;;;5.20;90.20;;;;;;5021503;28;20025;-62
2024/01/07 06:51:59;;;;;;;13.45;9.73;;;5.20;90.20;;;;;;5019516;28;20092;-62
2024/01/07 06:54:25;;;;;;;13.95;10.02;;;5.20;90.20;;;;;;5031213;28;20382;-62
2024/01/07 06:56:51;;;;;;;14.40;10.02;;;5.10;90.20;;;;;;5024477;28;20032;-61
2024/01/07 06:59:16;;;;;;;11.80;9.27;;;5.20;90.20;;;;;;5025301;28;20033;-62
2024/01/07 07:01:43;;;;;;;14.07;9.63;;;5.20;90.30;;;;;;5020795;28;20126;-60
2024/01/07 07:04:08;;;;;;;12.95;9.25;;;5.20;90.30;;;;;;5023618;28;20468;-63
2024/01/07 07:06:34;;;;;;;12.98;9.27;;;5.10;90.30;;;;;;5026807;28;20033;-60
2024/01/07 07:09:00;;;;;;;12.52;9.45;;;5.10;90.30;;;;;;5024224;28;20034;-63
2024/01/07 07:11:26;;;;;;;13.88;10.02;;;5.20;90.30;;;;;;5021120;28;20124;-62
2024/01/07 07:13:51;;;;;;;13.32;10.05;;;5.20;90.30;;;;;;5020489;28;20037;-62
2024/01/07 07:16:17;;;;;;;13.73;10.23;;;5.20;90.30;;;;;;5023061;28;20648;-63
2024/01/07 07:18:43;;;;;;;13.50;9.63;;;5.20;90.30;;;;;;5019523;28;20469;-61
2024/01/07 07:21:08;;;;;;;14.88;9.80;;;5.20;90.30;;;;;;5021029;28;20449;-61
2024/01/07 07:23:34;;;;;;;13.23;9.98;;;5.20;90.40;;;;;;5017840;28;20049;-63
2024/01/07 07:25:59;;;;;;;15.43;10.73;;;5.20;90.40;;;;;;5017755;28;20747;-61
2024/01/07 07:28:25;;;;;;;14.60;10.50;;;5.20;90.40;;;;;;5016508;28;20547;-63
2024/01/07 07:30:52;;;;;;;14.60;10.60;;;5.20;90.40;;;;;;5017235;28;20400;-63
2024/01/07 07:33:17;;;;;;;16.08;10.07;;;5.30;90.40;;;;;;5017950;28;20045;-62
2024/01/07 07:35:43;;;;;;;14.20;10.18;;;5.30;90.40;;;;;;5019290;28;20037;-63
2024/01/07 07:38:08;;;;;;;13.98;9.95;;;5.30;90.50;;;;;;5013628;28;20128;-63
2024/01/07 07:40:34;;;;;;;15.18;10.63;;;5.30;90.50;;;;;;5021315;28;20065;-63
2024/01/07 07:43:00;;;;;;;13.23;10.57;;;5.30;90.50;;;;;;5021196;28;20037;-63
2024/01/07 07:45:25;;;;;;;13.38;10.10;;;5.40;90.50;;;;;;5012804;28;20038;-63
2024/01/07 07:47:51;;;;;;;13.90;10.57;;;5.40;90.40;;;;;;5020833;28;20076;-62
2024/01/07 07:50:16;;;;;;;16.27;11.38;;;5.40;90.30;;;;;;5024597;28;20129;-62
2024/01/07 07:52:45;;;;;;;14.85;10.70;;;5.40;90.30;;;;;;5020182;28;20029;-62
2024/01/07 07:55:11;;;;;;;14.77;10.75;;;5.40;90.30;;;;;;5023237;28;20039;-62
2024/01/07 07:57:37;;;;;;;16.13;10.55;;;5.40;90.30;;;;;;5023102;28;20079;-62
2024/01/07 08:00:07;;;;;;;14.68;10.60;;;5.40;90.40;;;;;;5020337;28;20069;-63
2024/01/07 08:02:33;;;;;;;14.15;10.85;;;5.30;90.30;;;;;;5017277;28;20038;-62
2024/01/07 08:04:58;;;;;;;16.35;11.02;;;5.30;90.30;;;;;;5021216;28;20065;-63
2024/01/07 08:07:24;;;;;;;15.20;11.55;;;5.30;90.50;;;;;;5020966;28;20461;-63
2024/01/07 08:09:50;;;;;;;14.50;11.07;;;5.30;90.40;;;;;;5019983;28;20401;-62
2024/01/07 08:12:16;;;;;;;16.83;12.05;;;5.30;90.40;;;;;;5023213;28;20033;-62
2024/01/07 08:14:41;;;;;;;14.13;10.65;;;5.30;90.40;;;;;;5019348;28;20045;-63
2024/01/07 08:17:07;;;;;;;16.23;11.40;;;5.30;90.40;;;;;;5023267;28;20045;-62
2024/01/07 08:19:33;;;;;;;15.05;11.10;;;5.30;90.40;;;;;;5025703;28;20455;-62
2024/01/07 08:21:59;;;;;;;14.38;11.02;;;5.30;90.40;;;;;;5022705;28;20165;-62
2024/01/07 08:24:24;;;;;;;16.35;12.00;;;5.30;90.50;;;;;;5021033;28;20037;-62
2024/01/07 08:26:51;;;;;;;16.30;11.68;;;5.30;90.50;;;;;;5020819;28;20091;-62
2024/01/07 08:29:17;;;;;;;16.73;12.15;;;5.30;90.50;;;;;;5020059;28;20034;-62
2024/01/07 08:31:42;;;;;;;15.45;10.95;;;5.30;90.50;;;;;;5037380;28;20121;-61
2024/01/07 08:34:08;;;;;;;15.40;11.93;;;5.30;90.50;;;;;;5021206;28;20259;-62
2024/01/07 08:36:34;;;;;;;16.42;12.10;;;5.30;90.50;;;;;;5019920;28;20037;-63
2024/01/07 08:39:00;;;;;;;15.23;10.80;;;5.40;90.50;;;;;;5022766;28;20083;-63
2024/01/07 08:41:26;;;;;;;13.93;10.80;;;5.40;90.50;;;;;;5016859;28;20596;-61
2024/01/07 08:43:51;;;;;;;15.65;11.13;;;5.40;90.50;;;;;;5017348;28;20243;-62
2024/01/07 08:46:19;;;;;;;15.13;10.98;;;5.40;90.30;;;;;;5023925;28;20116;-63
2024/01/07 08:48:45;;;;;;;16.00;11.43;;;5.40;90.30;;;;;;5018062;28;20049;-62
2024/01/07 08:51:11;;;;;;;16.83;11.05;;;5.40;90.30;;;;;;5020536;28;20103;-63
2024/01/07 08:53:36;;;;;;;17.25;11.20;;;5.40;90.30;;;;;;5013848;28;20065;-63
2024/01/07 08:56:02;;;;;;;14.85;11.00;;;5.40;90.20;;;;;;5017349;28;20034;-62
2024/01/07 08:58:27;;;;;;;15.63;11.95;;;5.40;90.30;;;;;;5027741;28;20393;-63
2024/01/07 09:00:53;;;;;;;20.38;11.05;;;5.30;90.20;;;;;;5026820;28;20112;-61
2024/01/07 09:03:18;;;;;;;18.13;12.25;;;5.30;90.20;;;;;;5021257;28;20053;-63
2024/01/07 09:05:44;;;;;;;17.02;11.82;;;5.30;90.30;;;;;;5022266;28;20041;-62
2024/01/07 09:08:11;;;;;;;14.98;11.68;;;5.30;90.30;;;;;;5022433;28;20088;-63
2024/01/07 09:10:36;;;;;;;16.77;11.88;;;5.30;90.40;;;;;;5022368;28;20065;-62
2024/01/07 09:13:03;;;;;;;15.68;11.73;;;5.30;90.40;;;;;;5025637;28;20068;-62
2024/01/07 09:15:29;;;;;;;15.65;11.63;;;5.30;90.40;;;;;;5020638;28;20076;-63
2024/01/07 09:17:54;;;;;;;14.48;10.68;;;5.30;90.50;;;;;;5020349;28;20245;-63
2024/01/07 09:20:20;;;;;;;16.83;10.52;;;5.30;90.50;;;;;;5025262;28;20613;-62
2024/01/07 09:22:45;;;;;;;13.77;10.43;;;5.30;90.50;;;;;;5026253;28;20029;-62
2024/01/07 09:25:11;;;;;;;16.95;10.65;;;5.30;90.50;;;;;;5026660;28;20501;-62
2024/01/07 09:27:37;;;;;;;12.88;10.18;;;5.30;90.40;;;;;;5024982;28;20103;-62
2024/01/07 09:30:03;;;;;;;13.68;10.05;;;5.30;90.40;;;;;;5020029;28;20046;-62
2024/01/07 09:32:28;;;;;;;14.02;10.13;;;5.30;90.30;;;;;;5017981;28;20038;-62
2024/01/07 09:34:54;;;;;;;14.05;10.60;;;5.30;90.30;;;;;;5022220;28;20033;-63
2024/01/07 09:37:19;;;;;;;13.52;10.07;;;5.30;90.40;;;;;;5026991;28;20037;-63
2024/01/07 09:39:45;;;;;;;15.35;10.40;;;5.30;90.30;;;;;;5026024;28;20425;-61
2024/01/07 09:42:16;;;;;;;13.65;10.27;;;5.20;90.30;;;;;;5031532;28;20049;-63
2024/01/07 09:44:42;;;;;;;13.45;10.20;;;5.20;90.30;;;;;;5029987;28;20060;-60
2024/01/07 09:47:11;;;;;;;14.63;10.02;;;5.20;90.20;;;;;;5031261;28;20033;-63
2024/01/07 09:49:38;;;;;;;14.13;10.73;;;5.20;90.20;;;;;;5024805;28;20033;-63
2024/01/07 09:52:04;;;;;;;15.15;9.98;;;5.20;90.20;;;;;;5031356;28;20041;-63
2024/01/07 09:54:31;;;;;;;14.57;9.57;;;5.10;90.10;;;;;;5026743;28;20029;-64
2024/01/07 09:57:03;;;;;;;12.63;9.27;;;5.10;90.10;;;;;;5032862;28;20504;-61
2024/01/07 09:59:30;;;;;;;13.43;9.70;;;5.10;90.20;;;;;;5027515;28;20037;-63
2024/01/07 10:01:56;;;;;;;13.75;10.00;;;5.10;90.20;;;;;;5024764;28;20042;-63
2024/01/07 10:04:23;;;;;;;14.45;9.50;;;5.10;90.20;;;;;;5020166;28;20038;-62
2024/01/07 10:06:49;;;;;;;14.73;9.63;;;5.10;90.10;;;;;;5024799;28;20072;-62
2024/01/07 10:09:18;;;;;;;15.27;9.68;;;5.10;90.10;;;;;;5021225;28;20091;-62
2024/01/07 10:11:44;;;;;;;15.45;9.80;;;5.00;89.90;;;;;;5023817;28;20026;-61
2024/01/07 10:14:10;;;;;;;14.38;9.75;;;5.00;89.80;;;;;;5028156;28;20037;-60
2024/01/07 10:16:36;;;;;;;14.30;10.15;;;5.00;89.80;;;;;;5026852;28;20527;-62
2024/01/07 10:19:01;;;;;;;16.33;11.45;;;4.90;89.70;;;;;;5024286;28;20037;-61
2024/01/07 10:21:27;;;;;;;16.00;10.27;;;4.90;89.80;;;;;;5026879;28;20030;-63
2024/01/07 10:24:13;;;;;;;13.45;9.63;;;4.90;90.00;;;;;;5023510;28;20037;-61
2024/01/07 10:26:40;;;;;;;11.57;9.07;;;4.80;90.00;;;;;;5023096;28;20505;-62
2024/01/07 10:29:07;;;;;;;14.77;9.50;;;4.80;90.00;;;;;;5023735;28;20080;-62
2024/01/07 10:31:33;;;;;;;14.15;9.10;;;4.80;90.10;;;;;;5027054;28;20038;-62
2024/01/07 10:33:59;;;;;;;14.52;9.57;;;4.70;90.10;;;;;;5022490;28;20443;-61
2024/01/07 10:36:25;;;;;;;14.82;9.85;;;4.80;90.10;;;;;;5024999;28;20503;-62
2024/01/07 10:38:52;;;;;;;12.32;9.02;;;4.70;90.20;;;;;;5022884;28;20033;-62
2024/01/07 10:41:21;;;;;;;12.20;8.90;;;4.80;90.20;;;;;;5024179;28;20034;-63
2024/01/07 10:43:48;;;;;;;12.10;8.60;;;4.70;90.20;;;;;;5025410;28;20037;-61
2024/01/07 10:46:14;;;;;;;12.40;8.70;;;4.70;90.20;;;;;;5025398;28;20524;-63
2024/01/07 10:49:00;;;;;;;12.93;8.70;;;4.70;90.20;;;;;;5024298;28;20041;-62
2024/01/07 10:51:27;;;;;;;;;;;4.70;90.10;;;;;;5025820;28;20471;-63
2024/01/07 10:53:55;;;;;;;10.65;7.72;;;4.70;90.20;;;;;;5023980;28;19909;-62
2024/01/07 10:56:24;;;;;;;12.02;7.95;;;4.70;90.00;;;;;;5024024;28;20047;-62
2024/01/07 10:58:57;;;;;;;10.30;7.80;;;4.70;90.00;;;;;;5023590;28;20430;-62
2024/01/07 11:01:23;;;;;;;10.35;7.38;;;4.60;90.00;;;;;;5025097;28;20037;-62
2024/01/07 11:04:13;;;;;;;11.20;8.18;;;4.60;90.00;;;;;;5027414;28;20045;-62
2024/01/07 11:06:49;;;;;;;10.25;7.45;;;4.50;90.10;;;;;;5018991;28;20095;-62
2024/01/07 11:09:18;;;;;;;11.07;7.80;;;4.50;90.00;;;;;;5019257;28;20033;-60
2024/01/07 11:11:44;;;;;;;9.90;6.45;;;4.50;90.00;;;;;;5024446;28;20041;-61
2024/01/07 11:14:36;;;;;;;10.85;7.40;;;4.50;90.00;;;;;;5019978;28;20037;-61
2024/01/07 11:17:02;;;;;;;10.68;7.28;;;4.40;90.00;;;;;;5016881;28;20505;-61
2024/01/07 11:19:28;;;;;;;8.77;6.82;;;4.40;90.00;;;;;;5019411;28;20041;-62
2024/01/07 11:22:29;;;;;;;10.55;6.88;;;4.40;90.00;;;;;;5020247;28;20033;-61
2024/01/07 11:25:00;;;;;;;9.30;6.82;;;4.30;90.10;;;;;;5018788;28;20113;-61
2024/01/07 11:27:30;;;;;;;9.75;7.20;;;4.30;90.10;;;;;;5025235;28;20065;-60
2024/01/07 11:29:58;;;;;;;18.08;9.35;;;4.30;90.20;;;;;;5018049;28;20039;-60
2024/01/07 11:32:25;;;;;;;11.23;7.20;;;4.30;90.20;;;;;;5022568;28;20038;-62
2024/01/07 11:34:53;;;;;;;10.07;7.20;;;4.30;90.20;;;;;;5022212;28;20037;-62
2024/01/07 11:37:19;;;;;;;9.85;7.15;;;4.30;90.20;;;;;;5020749;28;20068;-60
2024/01/07 11:39:46;;;;;;;12.27;7.43;;;4.30;90.30;;;;;;5027920;28;20042;-62
2024/01/07 11:42:12;;;;;;;11.07;7.20;;;4.30;90.20;;;;;;5023907;28;20106;-60
2024/01/07 11:44:44;;;;;;;9.95;6.95;;;4.30;90.20;;;;;;5024520;28;20116;-61
2024/01/07 11:47:10;;;;;;;10.82;6.97;;;4.30;90.20;;;;;;5026529;28;20382;-62
2024/01/07 11:49:35;;;;;;;11.82;7.53;;;4.30;90.50;;;;;;5022409;28;20037;-62
2024/01/07 11:52:02;;;;;;;11.68;7.32;;;4.30;90.20;;;;;;5030465;28;20084;-62
2024/01/07 11:54:28;;;;;;;10.98;7.50;;;4.30;90.20;;;;;;5023534;28;20034;-62
2024/01/07 11:56:55;;;;;;;11.00;7.43;;;4.30;90.10;;;;;;5022946;28;20033;-62
2024/01/07 11:59:20;;;;;;;11.55;7.85;;;4.30;90.10;;;;;;5026642;28;20132;-62
2024/01/07 12:01:46;;;;;;;10.77;7.25;;;4.20;90.10;;;;;;5025046;28;20616;-62
2024/01/07 12:04:12;;;;;;;11.50;8.02;;;4.20;90.00;;;;;;5022859;28;20413;-61
2024/01/07 12:06:39;;;;;;;11.65;7.85;;;4.20;90.10;;;;;;5026300;28;20075;-62
2024/01/07 12:09:05;;;;;;;12.00;8.07;;;4.20;90.10;;;;;;5022889;28;20396;-60
2024/01/07 12:11:31;;;;;;;10.77;7.72;;;4.20;90.10;;;;;;5029594;28;20083;-60
2024/01/07 12:13:57;;;;;;;12.75;8.00;;;4.10;90.10;;;;;;5024520;28;20116;-62
2024/01/07 12:16:23;;;;;;;11.80;8.05;;;4.10;90.20;;;;;;5027591;28;20501;-62
2024/01/07 12:18:48;;;;;;;12.10;8.20;;;4.10;90.20;;;;;;5025253;28;20048;-62
2024/01/07 12:21:21;;;;;;;11.65;7.50;;;4.10;90.10;;;;;;5024020;28;20404;-60
2024/01/07 12:23:50;;;;;;;11.57;7.80;;;4.10;90.10;;;;;;5023583;28;20420;-62
2024/01/07 12:26:16;;;;;;;11.35;7.75;;;4.10;90.10;;;;;;5024404;28;20183;-63
2024/01/07 12:28:42;;;;;;;13.30;8.18;;;4.10;90.10;;;;;;5026289;28;20148;-62
2024/01/07 12:31:09;;;;;;;11.30;7.50;;;4.10;90.00;;;;;;5026624;28;20036;-61
2024/01/07 12:33:36;;;;;;;10.65;7.47;;;4.00;90.10;;;;;;5024080;28;20041;-61
2024/01/07 12:36:03;;;;;;;12.40;7.25;;;4.10;90.20;;;;;;5027427;28;20041;-61
2024/01/07 12:38:29;;;;;;;12.35;7.70;;;4.00;90.20;;;;;;5024729;28;20627;-61
2024/01/07 12:40:55;;;;;;;10.45;7.22;;;4.10;90.20;;;;;;5033381;28;20132;-63
2024/01/07 12:43:20;;;;;;;10.63;7.53;;;4.00;90.10;;;;;;5031003;28;20313;-60